Airfield :
LOGIN :

Register | Disclaimer

   EN    FR    IT 

 










Legend :    VFR   Marginal VFR   IFR   Intensive IFR   Very Intensive IFR
Visi :
Ceiling :
>= 8 km
>= 3000ft
5 to 8 km
1000 to 3000 ft
1500m to 5 km
500 to 1000 ft
800 to 1500m
200 to 500 ft
< 800m
< 200 ft
Symbols :   Thunderstorms  Fog  Heavy snow  Heavy precipitations  Wind > 20 kt
SIGMETs :     Misc.  Thunderstorms  Icing  Turbulence  Mountain Waves  Volcanic Ashes






- Airport Elevation : 313 ft
- IATA code : LEH


LFOH - Le Havre Octeville

CURRENT METAR :
  • 271400Z AUTO 34025G37KT 9999 BKN023 BKN031 06/02 Q1004 NOSIG

EXPIRED METARs :
  • 271330Z AUTO 34025G36KT 9999 BKN018 OVC027 06/03 Q1003 NOSIG
  • 271300Z AUTO 34026KT 9999 BKN017 OVC023 06/03 Q1002 BECMG 33020G35KT
  • 271230Z AUTO 35027G38KT 9999 BKN017 OVC022 06/04 Q1001 NOSIG
  • 271200Z AUTO 35024KT 9999 FEW009 BKN017 OVC023 06/04 Q0999 BECMG 33020G35KT
  • 271130Z AUTO 35030KT 9999 BKN010 BKN015 OVC020 06/04 Q0997

TAF TAF LFOH
Valid from the 27 at 12:00 until the 28 at 12:00 UTC


271100Z 2712/2812 34030G45KT 9999 OVC007
BECMG 2712/2714 33020G35KT BKN017
BECMG 2716/2718 32015G25KT
BECMG 2718/2720 29008KT
BECMG 2802/2805 17013KT
BECMG 2809/2811 17020G30KT RA OVC012
ATIS : +33 2 35 54 64 93



MET'MAP, your aeronautical weather chart ! - Copyright ORBIFLY December 2007 - Disclaimer

ORBIFLY MET'MAP TEAM :

Programming & Development : Alexandra Zaïnal
Concept & original design : Baudouin d'Aumeries
Assistance for programming : Marc-Olivier Méhu
Technical & hardware support : Manuel Goepfert

Contact : metmap@orbifly.com




SOURCES & CREDITS :

   NOAA